Santa Rosa, CA

12:19 AM PDT on October 24, 2014 (GMT -0700)
Napa County | Change Station
CLOSE
Current Station
Airport
Location: Napa County,
Elevation: 33 ft
Nearby Weather Stations

Elev 33 ft 38.21 °N, 122.28 °W | Updated 25 minutes ago

Clear
Clear
56 °F
Feels Like 56 °F
N
5
Wind Variable Wind from NE

Today
High -- | Low -- °F
--% Chance of Precip.
Yesterday
High -- | Low -- °F
Precip. -- in
7:29 AM 6:20 PM
New Moon, 0% visible
Pressure 29.96 in
Visibility 10.0 miles
Clouds Clear
Dew Point 53 °F
Humidity 90%
Rainfall 0.00 in
Snow Depth Not available.
UV 0 out of 12
Pollen 1.70 out of 12
Air Quality Not available.
Flu Activity Sporadic
METAR KAPC 240654Z AUTO 05004KT 10SM CLR 13/12 A2999 RMK AO2 SLP146 T01330117

More Conditions Fewer Conditions

Pressure 29.96 in
Visibility 10.0 miles
Clouds Clear
Dew Point 53 °F
Humidity 90%
Rainfall 0.00 in
Snow Depth Not available.
UV 0 out of 12
Pollen 1.70 out of 12
Air Quality Not available.
Flu Activity Sporadic
METAR KAPC 240654Z AUTO 05004KT 10SM CLR 13/12 A2999 RMK AO2 SLP146 T01330117

More Conditions Fewer Conditions

10-Day Weather Forecast

Almanac

Astronomy

Oct. 24, 2014 Rise Set
Actual Time 7:29 AM PDT 6:20 PM PDT
Civil Twilight 7:02 AM PDT 6:47 PM PDT
Nautical Twilight 6:31 AM PDT 7:18 PM PDT
Astronomical Twilight 6:00 AM PDT 7:49 PM PDT
Moon 8:13 AM PDT 7:05 PM PDT
Length of Visible Light 11h 45m
Length of Day
10h 51m
Tomorrow will be 2m 18s shorter.
New Moon, 0% of the Moon is Illuminated
Today
New Moon
Oct 30
First Quarter
Nov 6
Full
Nov 14
Last Quarter
Nov 22
New

Today's Extremes

State Highs State Lows

Community

WunderPhotos

Upload Photos

1,764,510 photos uploaded!

WunderBlogs® & News

Nearby

Air Quality

  Air Quality AQ Index Pollutant
Thursday Good
PM2.5
Friday Good
PM2.5
Saturday Good
OZONE
Sunday Good
OZONE
Monday Good
PM2.5
Tuesday Good
PM2.5

Snow Depth

Station Depth Elevation
CSS Lab 0 in 6900 ft
Ward Creek #3 9 in 6750 ft
Squaw Valley 0 in 8200 ft
Rubicon #2 1 in 7500 ft
Independence Lake 0 in 8450 ft

Earthquake Activity

City Distance Mag. Time & Date
No recent earthquake activity has been reported nearby.
Minimum magnitude displayed is 2.5.

Coastal Water Temperatures

Place Temperature
Point Reyes, CA 61.0 °F
Arena Cove, CA 60.1 °F
San Francisco, CA 63.0 °F
Richmond, CA 64.0 °F

Nearby Weather Stations